All Spectrum Aviation - Van Nuys Airport - KVNY

HOME

Condor Squadron KVNY Webcam

Visit our Electronics Store

Condor Squadron Webcam - Van Nuys Airport - KVNY
Picture taken: Thu, 22 Oct 2020 08:38:38 -0700
YouTube Channel!    Latest Timelapse Movie    Full Size Image    Regular Size Image    

2020/10/22 14:51 KVNY 221451Z 03004KT 5SM HZ OVC018 18/14 A2986 RMK AO2 SLP106 T01830139 51007

HOME

Condor Squadron KVNY Webcam

Visit our Electronics Store